Time;durP1;ratioP1;P1;durP2;ratioP2;P2;SDS_P1;SDS_P2;PMS_P1;PMS_P2;Temp;Humidity;BMP_temperature;BMP_pressure;BME280_temperature;BME280_humidity;BME280_pressure;Samples;Min_cycle;Max_cycle;Signal;HPM_P1;HPM_P2
2024/01/20 00:01:24;;;;;;;;;;;;;;;21.73;27.07;97552.25;4996418;28;1902;-73
2024/01/20 00:03:50;;;;;;;;;;;;;;;21.73;26.98;97563.56;5011100;28;1000;-73
2024/01/20 00:06:15;;;;;;;;;;;;;;;21.70;27.28;97587.91;5011393;28;1041;-72
2024/01/20 00:08:43;;;;;;;;;;;;;;;21.45;27.24;97594.44;5014807;28;1025;-73
2024/01/20 00:11:08;;;;;;;;;;;;;;;21.14;27.94;97605.50;5013602;28;1126;-72
2024/01/20 00:13:34;;;;;;;;;;;;;;;20.96;27.94;97625.03;5013440;28;966;-73
2024/01/20 00:15:59;;;;;;;;;;;;;;;21.06;27.97;97612.59;5013753;28;885;-73
2024/01/20 00:18:25;;;;;;;;;;;;;;;21.34;27.65;97605.28;4997452;28;1204;-72
2024/01/20 00:20:50;;;;;;;;;;;;;;;21.59;27.40;97601.66;5013645;28;1898;-72
2024/01/20 00:23:16;;;;;;;;;;;;;;;21.61;27.15;97601.22;5017264;28;979;-72
2024/01/20 00:25:42;;;;;;;;;;;;;;;21.73;26.90;97604.00;5017098;28;1140;-73
2024/01/20 00:28:07;;;;;;;;;;;;;;;21.59;27.13;97618.63;5016956;28;1241;-73
2024/01/20 00:30:33;;;;;;;;;;;;;;;21.10;27.44;97629.47;5016723;28;1232;-73
2024/01/20 00:32:58;;;;;;;;;;;;;;;21.10;27.30;97620.97;5016864;28;992;-73
2024/01/20 00:35:24;;;;;;;;;;;;;;;21.03;27.78;97622.75;5016642;28;881;-73
2024/01/20 00:37:49;;;;;;;;;;;;;;;21.11;27.79;97599.94;5000760;28;1110;-72
2024/01/20 00:40:15;;;;;;;;;;;;;;;21.74;26.58;97599.94;5016935;28;1110;-73
2024/01/20 00:42:40;;;;;;;;;;;;;;;21.84;26.30;97598.78;4989148;28;1915;-73
2024/01/20 00:45:07;;;;;;;;;;;;;;;21.69;27.02;97603.34;5016722;28;985;-73
2024/01/20 00:47:33;;;;;;;;;;;;;;;21.78;26.85;97592.09;5016524;28;1151;-73
2024/01/20 00:49:59;;;;;;;;;;;;;;;21.28;27.41;97601.41;5016594;28;1033;-73
2024/01/20 00:52:24;;;;;;;;;;;;;;;21.08;27.46;97612.94;5006141;28;994;-73
2024/01/20 00:54:50;;;;;;;;;;;;;;;21.00;27.80;97635.00;5018653;28;907;-73
2024/01/20 00:57:16;;;;;;;;;;;;;;;21.61;26.96;97641.63;5017253;28;912;-72
2024/01/20 00:59:41;;;;;;;;;;;;;;;21.82;26.75;97657.94;5016425;28;1256;-73
2024/01/20 01:02:07;;;;;;;;;;;;;;;21.61;26.84;97664.28;5016237;28;1910;-73
2024/01/20 01:04:32;;;;;;;;;;;;;;;21.70;26.93;97667.22;4999946;28;1485;-73
2024/01/20 01:06:58;;;;;;;;;;;;;;;21.45;27.14;97661.53;5000242;28;919;-72
2024/01/20 01:09:23;;;;;;;;;;;;;;;21.84;26.50;97668.78;5000045;28;945;-73
2024/01/20 01:11:49;;;;;;;;;;;;;;;21.50;26.85;97670.28;5000100;28;1013;-73
2024/01/20 01:14:15;;;;;;;;;;;;;;;21.00;27.46;97677.44;5000016;28;911;-73
2024/01/20 01:16:40;;;;;;;;;;;;;;;21.09;27.64;97676.78;4999777;28;941;-74
2024/01/20 01:19:06;;;;;;;;;;;;;;;21.50;27.11;97673.13;5015886;28;1607;-73
2024/01/20 01:21:31;;;;;;;;;;;;;;;21.66;26.94;97683.53;5015817;28;1906;-73
2024/01/20 01:23:57;;;;;;;;;;;;;;;21.76;26.37;97682.41;4999520;28;893;-73
2024/01/20 01:26:23;;;;;;;;;;;;;;;21.91;26.48;97677.03;4999618;28;960;-74
2024/01/20 01:28:49;;;;;;;;;;;;;;;21.51;26.88;97671.09;5016068;28;1055;-72
2024/01/20 01:31:14;;;;;;;;;;;;;;;20.93;27.39;97671.16;5000383;28;995;-73
2024/01/20 01:33:40;;;;;;;;;;;;;;;20.81;27.57;97682.00;5017142;28;1111;-73
2024/01/20 01:36:05;;;;;;;;;;;;;;;21.42;27.18;97685.91;5017971;28;950;-73
2024/01/20 01:38:31;;;;;;;;;;;;;;;21.62;26.67;97680.03;5017803;28;927;-73
2024/01/20 01:40:57;;;;;;;;;;;;;;;21.59;26.37;97683.75;5017834;28;1977;-73
2024/01/20 01:43:23;;;;;;;;;;;;;;;21.41;26.79;97683.53;5017884;28;917;-73
2024/01/20 01:45:48;;;;;;;;;;;;;;;21.57;26.43;97683.41;5016489;28;1024;-73
2024/01/20 01:48:14;;;;;;;;;;;;;;;21.69;26.37;97674.13;5016365;28;2162;-72
2024/01/20 01:50:39;;;;;;;;;;;;;;;21.72;26.08;97687.38;5017883;28;931;-72
2024/01/20 01:53:05;;;;;;;;;;;;;;;21.45;26.42;97673.69;5016513;28;1182;-73
2024/01/20 01:55:30;;;;;;;;;;;;;;;21.39;26.69;97671.84;5016438;28;1097;-73
2024/01/20 01:57:57;;;;;;;;;;;;;;;21.77;26.15;97678.31;5016272;28;983;-73
2024/01/20 02:00:23;;;;;;;;;;;;;;;21.52;26.23;97669.81;5015269;28;943;-72
2024/01/20 02:02:48;;;;;;;;;;;;;;;21.20;26.72;97685.72;4978904;28;1979;-73
2024/01/20 02:05:14;;;;;;;;;;;;;;;20.78;27.18;97682.13;4995152;28;1262;-73
2024/01/20 02:07:40;;;;;;;;;;;;;;;21.37;26.43;97686.47;4979177;28;1104;-72
2024/01/20 02:10:06;;;;;;;;;;;;;;;21.54;26.12;97701.31;4962754;28;901;-73
2024/01/20 02:12:31;;;;;;;;;;;;;;;21.66;26.16;97689.19;4995748;28;926;-73
2024/01/20 02:14:57;;;;;;;;;;;;;;;21.58;26.43;97682.16;4979247;28;1150;-73
2024/01/20 02:17:23;;;;;;;;;;;;;;;21.69;26.08;97685.44;4995516;28;1165;-72
2024/01/20 02:19:48;;;;;;;;;;;;;;;21.73;26.01;97694.63;4956146;29;1210;-73
2024/01/20 02:22:14;;;;;;;;;;;;;;;21.36;26.47;97716.00;4940708;29;1997;-73
2024/01/20 02:24:39;;;;;;;;;;;;;;;21.07;27.15;97733.00;4921284;29;1193;-73
2024/01/20 02:27:05;;;;;;;;;;;;;;;20.97;27.44;97745.41;4921753;29;1150;-73
2024/01/20 02:29:31;;;;;;;;;;;;;;;21.51;26.48;97747.50;4921531;29;955;-73
2024/01/20 02:31:56;;;;;;;;;;;;;;;21.31;26.64;97748.47;4923029;29;1000;-73
2024/01/20 02:34:22;;;;;;;;;;;;;;;21.41;26.42;97768.44;4902191;29;1140;-72
2024/01/20 02:36:47;;;;;;;;;;;;;;;21.49;26.35;97769.78;4918083;29;1312;-73
2024/01/20 02:39:13;;;;;;;;;;;;;;;21.47;26.52;97778.75;4905200;29;1216;-73
2024/01/20 02:41:39;;;;;;;;;;;;;;;21.23;26.58;97797.22;4924199;29;1978;-73
2024/01/20 02:44:07;;;;;;;;;;;;;;;21.02;26.92;97801.44;4939739;29;994;-73
2024/01/20 02:46:32;;;;;;;;;;;;;;;21.03;26.81;97805.84;4940260;29;976;-74
2024/01/20 02:48:58;;;;;;;;;;;;;;;21.24;26.94;97805.28;4940264;29;990;-73
2024/01/20 02:51:23;;;;;;;;;;;;;;;21.14;26.85;97812.03;4954473;28;1226;-73
2024/01/20 02:53:49;;;;;;;;;;;;;;;21.54;26.50;97811.72;4975443;28;1004;-73
2024/01/20 02:56:14;;;;;;;;;;;;;;;21.78;25.87;97823.53;4956453;28;1114;-72
2024/01/20 02:58:40;;;;;;;;;;;;;;;21.72;25.99;97837.47;5016493;28;1014;-73
2024/01/20 03:01:06;;;;;;;;;;;;;;;21.80;25.90;97841.66;5014621;28;1989;-73
2024/01/20 03:03:31;;;;;;;;;;;;;;;21.52;26.03;97851.00;4994420;28;1079;-73
2024/01/20 03:05:57;;;;;;;;;;;;;;;20.91;26.93;97863.16;4962016;28;1226;-72
2024/01/20 03:08:23;;;;;;;;;;;;;;;21.27;26.63;97877.94;4978270;28;1328;-73
2024/01/20 03:10:48;;;;;;;;;;;;;;;21.47;26.46;97874.19;4994430;28;1063;-72
2024/01/20 03:13:14;;;;;;;;;;;;;;;21.52;26.13;97873.66;4978290;28;994;-73
2024/01/20 03:15:39;;;;;;;;;;;;;;;21.51;26.11;97860.75;4994620;28;1014;-72
2024/01/20 03:18:05;;;;;;;;;;;;;;;21.81;25.93;97854.59;4978393;28;944;-72
2024/01/20 03:20:30;;;;;;;;;;;;;;;21.45;26.51;97863.34;4962144;28;1112;-73
2024/01/20 03:22:56;;;;;;;;;;;;;;;21.57;26.32;97861.78;4994534;28;1981;-73
2024/01/20 03:25:21;;;;;;;;;;;;;;;21.50;26.54;97861.97;4994571;28;969;-72
2024/01/20 03:27:47;;;;;;;;;;;;;;;21.69;26.12;97875.16;4994809;28;961;-72
2024/01/20 03:30:13;;;;;;;;;;;;;;;21.61;26.04;97885.13;4994250;28;941;-73
2024/01/20 03:32:38;;;;;;;;;;;;;;;21.32;26.24;97885.91;4941245;29;1255;-72
2024/01/20 03:35:05;;;;;;;;;;;;;;;21.23;26.35;97888.53;4964440;28;898;-72
2024/01/20 03:37:31;;;;;;;;;;;;;;;21.00;26.89;97880.28;4958380;28;1011;-73
2024/01/20 03:39:56;;;;;;;;;;;;;;;21.47;26.15;97875.00;4958697;28;1174;-73
2024/01/20 03:42:22;;;;;;;;;;;;;;;21.81;25.63;97865.94;4958369;28;1906;-72
2024/01/20 03:44:48;;;;;;;;;;;;;;;21.74;25.73;97871.00;4959034;28;967;-72
2024/01/20 03:47:13;;;;;;;;;;;;;;;21.73;26.14;97869.41;4942579;28;1060;-74
2024/01/20 03:49:39;;;;;;;;;;;;;;;21.67;26.27;97865.56;4942667;28;1335;-73
2024/01/20 03:52:04;;;;;;;;;;;;;;;21.68;25.99;97858.63;4942896;28;1216;-72
2024/01/20 03:54:30;;;;;;;;;;;;;;;21.14;26.84;97857.28;4974522;28;1111;-72
2024/01/20 03:56:56;;;;;;;;;;;;;;;21.12;26.53;97873.91;4944819;28;1324;-74
2024/01/20 03:59:21;;;;;;;;;;;;;;;21.04;26.94;97892.31;4962503;28;875;-71
2024/01/20 04:01:47;;;;;;;;;;;;;;;21.26;26.61;97901.81;4978353;28;1911;-72
2024/01/20 04:04:12;;;;;;;;;;;;;;;21.58;26.17;97897.34;4962420;28;952;-72
2024/01/20 04:06:38;;;;;;;;;;;;;;;21.46;26.48;97901.72;4962128;28;1086;-72
2024/01/20 04:09:04;;;;;;;;;;;;;;;21.57;26.22;97912.75;4948067;28;1125;-71
2024/01/20 04:11:29;;;;;;;;;;;;;;;21.62;26.43;97926.34;4997546;28;890;-71
2024/01/20 04:13:55;;;;;;;;;;;;;;;21.63;26.08;97939.25;4983534;28;965;-73
2024/01/20 04:16:20;;;;;;;;;;;;;;;21.19;26.65;97949.31;5036832;28;1002;-72
2024/01/20 04:18:46;;;;;;;;;;;;;;;21.09;26.59;97956.84;5036836;28;998;-72
2024/01/20 04:21:11;;;;;;;;;;;;;;;20.92;27.27;97969.38;5020751;28;1980;-72
2024/01/20 04:23:37;;;;;;;;;;;;;;;21.55;26.29;97971.84;5036587;28;1167;-72
2024/01/20 04:26:02;;;;;;;;;;;;;;;21.12;26.55;97981.41;5036842;28;1164;-72
2024/01/20 04:28:28;;;;;;;;;;;;;;;21.16;26.71;97987.00;5020012;28;1023;-72
2024/01/20 04:30:53;;;;;;;;;;;;;;;21.35;26.33;97990.97;5020111;28;1392;-72
2024/01/20 04:33:19;;;;;;;;;;;;;;;21.22;26.30;97993.69;5020216;28;992;-73
2024/01/20 04:35:45;;;;;;;;;;;;;;;21.38;26.48;97995.75;5036786;28;1025;-73
2024/01/20 04:38:10;;;;;;;;;;;;;;;21.53;26.12;97991.31;5019986;28;961;-73
2024/01/20 04:40:36;;;;;;;;;;;;;;;21.33;26.17;97995.03;5015962;28;1938;-73
2024/01/20 04:43:01;;;;;;;;;;;;;;;21.00;26.77;98004.75;5016533;28;1984;-73
2024/01/20 04:45:27;;;;;;;;;;;;;;;21.30;26.32;98006.47;5016683;28;1036;-72
2024/01/20 04:47:53;;;;;;;;;;;;;;;21.31;26.30;98008.84;4985962;28;1000;-73
2024/01/20 04:50:18;;;;;;;;;;;;;;;21.37;26.43;98020.44;4964554;28;971;-72
2024/01/20 04:52:44;;;;;;;;;;;;;;;21.83;25.45;98027.72;4996777;28;966;-73
2024/01/20 04:55:09;;;;;;;;;;;;;;;21.44;25.68;98022.28;4980500;28;1881;-73
2024/01/20 04:57:35;;;;;;;;;;;;;;;21.11;26.39;98025.09;4963251;28;1619;-73
2024/01/20 05:00:00;;;;;;;;;;;;;;;21.08;26.34;98040.09;4977548;28;1030;-72
2024/01/20 05:02:26;;;;;;;;;;;;;;;21.36;25.99;98052.03;4977390;28;1906;-73
2024/01/20 05:04:51;;;;;;;;;;;;;;;21.45;26.15;98035.19;4977343;28;1240;-73
2024/01/20 05:07:18;;;;;;;;;;;;;;;21.36;26.24;98049.19;4977134;28;1035;-73
2024/01/20 05:09:43;;;;;;;;;;;;;;;21.32;26.47;98058.56;4961112;28;1059;-73
2024/01/20 05:12:08;;;;;;;;;;;;;;;21.50;26.13;98060.97;4946227;28;1430;-73
2024/01/20 05:14:35;;;;;;;;;;;;;;;21.47;26.29;98055.38;4995770;28;1321;-73
2024/01/20 05:17:00;;;;;;;;;;;;;;;21.44;26.33;98067.56;4964227;28;1182;-73
2024/01/20 05:19:26;;;;;;;;;;;;;;;21.74;25.89;98064.38;4992425;28;977;-73
2024/01/20 05:21:51;;;;;;;;;;;;;;;21.65;25.49;98067.03;4998600;28;1977;-73
2024/01/20 05:24:17;;;;;;;;;;;;;;;21.07;26.41;98075.28;4997603;28;1091;-73
2024/01/20 05:26:42;;;;;;;;;;;;;;;20.85;26.69;98072.16;4998718;28;928;-73
2024/01/20 05:29:08;;;;;;;;;;;;;;;21.35;26.27;98073.03;5030788;28;1325;-72
2024/01/20 05:31:33;;;;;;;;;;;;;;;21.29;26.17;98067.88;5028560;28;1540;-72
2024/01/20 05:33:59;;;;;;;;;;;;;;;21.28;26.05;98066.28;5017841;28;921;-73
2024/01/20 05:36:24;;;;;;;;;;;;;;;21.41;26.22;98068.47;5031180;28;1453;-73
2024/01/20 05:38:50;;;;;;;;;;;;;;;21.41;26.00;98085.47;5032963;28;966;-73
2024/01/20 05:41:16;;;;;;;;;;;;;;;21.58;26.05;98089.88;5033374;28;1963;-73
2024/01/20 05:43:41;;;;;;;;;;;;;;;21.29;26.20;98090.53;5016453;28;969;-72
2024/01/20 05:46:07;;;;;;;;;;;;;;;21.13;26.10;98084.84;5016611;28;1120;-73
2024/01/20 05:48:33;;;;;;;;;;;;;;;21.13;26.24;98086.88;5015603;28;967;-73
2024/01/20 05:50:59;;;;;;;;;;;;;;;21.24;26.53;98102.41;4997408;28;1479;-72
2024/01/20 05:53:24;;;;;;;;;;;;;;;21.40;26.01;98089.50;4999239;28;1064;-73
2024/01/20 05:55:50;;;;;;;;;;;;;;;21.56;25.58;98075.38;4998760;28;1009;-73
2024/01/20 05:58:15;;;;;;;;;;;;;;;21.48;25.81;98071.91;5015233;28;1031;-73
2024/01/20 06:00:41;;;;;;;;;;;;;;;21.66;25.67;98079.16;5014972;28;1995;-73
2024/01/20 06:03:06;;;;;;;;;;;;;;;21.59;25.61;98077.31;5015480;28;927;-73
2024/01/20 06:05:32;;;;;;;;;;;;;;;21.89;25.50;98064.00;4993218;28;1398;-72
2024/01/20 06:07:57;;;;;;;;;;;;;;;21.32;25.74;98067.03;4979315;28;1213;-72
2024/01/20 06:10:23;;;;;;;;;;;;;;;20.98;26.17;98058.13;4995591;28;964;-73
2024/01/20 06:12:49;;;;;;;;;;;;;;;20.93;26.70;98064.31;4995650;28;1009;-73
2024/01/20 06:15:14;;;;;;;;;;;;;;;21.42;26.09;98070.84;4995431;28;1004;-73
2024/01/20 06:17:40;;;;;;;;;;;;;;;21.58;25.58;98079.34;4995412;28;1159;-73
2024/01/20 06:20:06;;;;;;;;;;;;;;;21.22;25.83;98096.38;4990486;28;1438;-73
2024/01/20 06:22:31;;;;;;;;;;;;;;;21.60;25.62;98095.88;4998504;28;1981;-73
2024/01/20 06:24:57;;;;;;;;;;;;;;;21.63;25.32;98114.81;4998665;28;1149;-72
2024/01/20 06:27:22;;;;;;;;;;;;;;;21.16;25.89;98109.44;4998438;28;1077;-73
2024/01/20 06:29:48;;;;;;;;;;;;;;;20.92;26.19;98119.28;4998569;28;1459;-73
2024/01/20 06:32:13;;;;;;;;;;;;;;;21.24;25.76;98118.56;4982323;28;953;-73
2024/01/20 06:34:39;;;;;;;;;;;;;;;21.35;25.66;98121.16;4997756;28;1402;-73
2024/01/20 06:37:05;;;;;;;;;;;;;;;21.41;25.54;98136.41;4998326;28;1116;-73
2024/01/20 06:39:30;;;;;;;;;;;;;;;21.49;25.41;98143.47;4998037;28;972;-73
2024/01/20 06:41:56;;;;;;;;;;;;;;;21.24;25.76;98170.31;4998148;28;1979;-73
2024/01/20 06:44:22;;;;;;;;;;;;;;;21.73;24.97;98163.94;4975195;28;971;-73
2024/01/20 06:46:48;;;;;;;;;;;;;;;21.58;25.30;98169.94;4975368;28;955;-73
2024/01/20 06:49:14;;;;;;;;;;;;;;;21.47;25.34;98169.41;4958451;28;1367;-73
2024/01/20 06:51:42;;;;;;;;;;;;;;;21.01;25.93;98181.72;4943431;28;1117;-73
2024/01/20 06:54:07;;;;;;;;;;;;;;;20.90;26.33;98186.81;4975114;28;1038;-72
2024/01/20 06:56:33;;;;;;;;;;;;;;;21.36;25.78;98202.03;4991668;28;1055;-73
2024/01/20 06:58:59;;;;;;;;;;;;;;;21.29;25.63;98209.38;4991533;28;1287;-73
2024/01/20 07:01:24;;;;;;;;;;;;;;;21.65;25.33;98208.63;4991467;28;1977;-73
2024/01/20 07:03:50;;;;;;;;;;;;;;;21.77;24.91;98215.63;4975197;28;1354;-72
2024/01/20 07:06:15;;;;;;;;;;;;;;;21.30;25.58;98213.88;4975263;28;1206;-72
2024/01/20 07:08:42;;;;;;;;;;;;;;;20.98;26.11;98213.72;4974995;28;1647;-73
2024/01/20 07:11:10;;;;;;;;;;;;;;;21.27;25.86;98216.75;4974957;28;1057;-73
2024/01/20 07:13:36;;;;;;;;;;;;;;;21.45;25.58;98211.53;4990106;28;1371;-73
2024/01/20 07:16:11;;;;;;;;;;;;;;;21.75;24.99;98204.72;5022743;28;975;-72
2024/01/20 07:18:37;;;;;;;;;;;;;;;21.40;25.48;98202.72;5014383;28;1324;-73
2024/01/20 07:21:03;;;;;;;;;;;;;;;21.57;25.31;98204.38;5016925;28;1902;-73
2024/01/20 07:23:29;;;;;;;;;;;;;;;21.78;24.90;98212.34;5034349;28;944;-73
2024/01/20 07:25:55;;;;;;;;;;;;;;;21.32;25.27;98214.22;5017452;28;968;-73
2024/01/20 07:28:20;;;;;;;;;;;;;;;21.08;25.44;98216.31;5016121;28;1415;-72
2024/01/20 07:30:46;;;;;;;;;;;;;;;20.97;26.09;98195.94;5019248;28;893;-72
2024/01/20 07:33:12;;;;;;;;;;;;;;;21.39;25.55;98207.59;5021161;28;1015;-72
2024/01/20 07:35:37;;;;;;;;;;;;;;;21.63;24.99;98201.81;5037792;28;1015;-73
2024/01/20 07:38:03;;;;;;;;;;;;;;;21.44;25.42;98203.44;5021394;28;968;-73
2024/01/20 07:40:29;;;;;;;;;;;;;;;21.40;25.53;98202.72;5021466;28;957;-72
2024/01/20 07:42:55;;;;;;;;;;;;;;;21.68;24.88;98204.13;5019864;28;1910;-72
2024/01/20 07:45:20;;;;;;;;;;;;;;;21.49;25.13;98194.44;5021150;28;993;-72
2024/01/20 07:47:46;;;;;;;;;;;;;;;21.53;25.15;98198.78;5005236;28;999;-72
2024/01/20 07:50:11;;;;;;;;;;;;;;;21.69;25.11;98197.22;5004629;28;1013;-73
2024/01/20 07:52:38;;;;;;;;;;;;;;;21.68;24.65;98204.91;5002341;28;1138;-73
2024/01/20 07:55:04;;;;;;;;;;;;;;;21.22;25.41;98209.56;5018604;28;1154;-73
2024/01/20 07:57:29;;;;;;;;;;;;;;;21.05;25.81;98222.06;5033731;28;1461;-73
2024/01/20 07:59:55;;;;;;;;;;;;;;;21.03;25.75;98224.50;5018358;28;911;-73
2024/01/20 08:02:20;;;;;;;;;;;;;;;21.40;25.19;98225.38;5019823;28;1931;-73
2024/01/20 08:04:46;;;;;;;;;;;;;;;21.41;25.26;98224.16;5021711;28;1353;-73
2024/01/20 08:07:11;;;;;;;;;;;;;;;21.69;24.80;98219.88;5021908;28;1258;-73
2024/01/20 08:09:37;;;;;;;;;;;;;;;21.74;24.77;98227.84;5005714;28;1232;-73
2024/01/20 08:12:02;;;;;;;;;;;;;;;21.68;24.53;98230.41;5020473;28;1357;-73
2024/01/20 08:14:28;;;;;;;;;;;;;;;21.57;24.90;98229.84;5021664;28;944;-73
2024/01/20 08:16:53;;;;;;;;;;;;;;;21.64;24.61;98228.88;5021710;28;1442;-73
2024/01/20 08:19:19;;;;;;;;;;;;;;;21.39;24.88;98240.75;5037772;28;1004;-73
2024/01/20 08:21:44;;;;;;;;;;;;;;;21.16;25.31;98261.44;5021609;28;1906;-73
2024/01/20 08:24:10;;;;;;;;;;;;;;;20.66;26.10;98257.56;5005227;28;1194;-73
2024/01/20 08:26:35;;;;;;;;;;;;;;;21.32;25.23;98265.16;5021203;28;1554;-73
2024/01/20 08:29:01;;;;;;;;;;;;;;;21.60;24.90;98279.94;5037968;28;1269;-72
2024/01/20 08:31:27;;;;;;;;;;;;;;;21.55;24.84;98272.78;5038918;28;938;-73
2024/01/20 08:33:53;;;;;;;;;;;;;;;21.70;24.62;98284.56;5038705;28;859;-73
2024/01/20 08:36:20;;;;;;;;;;;;;;;21.53;24.70;98277.25;5021552;28;976;-73
2024/01/20 08:38:45;;;;;;;;;;;;;;;21.69;24.59;98282.97;5039176;28;905;-73
2024/01/20 08:41:11;;;;;;;;;;;;;;;21.62;24.59;98288.00;5020534;28;1991;-73
2024/01/20 08:43:39;;;;;;;;;;;;;;;21.77;24.38;98295.75;5021048;28;997;-73
2024/01/20 08:46:05;;;;;;;;;;;;;;;21.45;24.75;98298.47;5018470;28;1013;-72
2024/01/20 08:48:30;;;;;;;;;;;;;;;20.98;25.43;98301.41;5021215;28;915;-73
2024/01/20 08:50:56;;;;;;;;;;;;;;;20.93;25.26;98304.72;5038663;28;930;-73
2024/01/20 08:53:21;;;;;;;;;;;;;;;21.33;25.11;98299.94;5004538;28;1229;-73
2024/01/20 08:55:47;;;;;;;;;;;;;;;21.33;24.95;98300.72;5033921;28;1362;-73
2024/01/20 08:58:12;;;;;;;;;;;;;;;21.37;24.75;98302.69;5003742;28;962;-73
2024/01/20 09:00:38;;;;;;;;;;;;;;;21.26;24.79;98306.50;5020934;28;1044;-73
2024/01/20 09:03:03;;;;;;;;;;;;;;;21.50;24.46;98306.44;4960988;28;1907;-73
2024/01/20 09:05:29;;;;;;;;;;;;;;;21.16;24.88;98312.38;4976965;28;1248;-73
2024/01/20 09:07:54;;;;;;;;;;;;;;;21.57;24.37;98309.13;4960996;28;1080;-72
2024/01/20 09:10:20;;;;;;;;;;;;;;;21.44;24.55;98311.81;4976940;28;1422;-73
2024/01/20 09:12:45;;;;;;;;;;;;;;;21.25;24.63;98319.06;4976381;28;1326;-73
2024/01/20 09:15:11;;;;;;;;;;;;;;;20.88;25.19;98330.69;4977243;28;955;-73
2024/01/20 09:17:37;;;;;;;;;;;;;;;21.21;24.93;98326.03;4957419;28;977;-73
2024/01/20 09:20:03;;;;;;;;;;;;;;;21.47;24.33;98327.16;4957796;28;998;-73
2024/01/20 09:22:28;;;;;;;;;;;;;;;21.18;24.60;98327.69;4941496;28;1984;-72
2024/01/20 09:24:54;;;;;;;;;;;;;;;21.52;24.23;98330.25;4957902;29;984;-73
2024/01/20 09:27:22;;;;;;;;;;;;;;;21.42;24.50;98316.34;4955908;28;1304;-72
2024/01/20 09:29:48;;;;;;;;;;;;;;;21.78;23.67;98328.50;4957821;28;922;-73
2024/01/20 09:32:13;;;;;;;;;;;;;;;21.53;23.97;98331.06;4949316;28;1664;-73
2024/01/20 09:34:39;;;;;;;;;;;;;;;21.08;24.72;98318.16;4986334;28;1783;-72
2024/01/20 09:37:04;;;;;;;;;;;;;;;21.05;24.95;98323.91;4978391;28;1054;-73
2024/01/20 09:39:30;;;;;;;;;;;;;;;21.55;24.05;98323.75;4957173;28;986;-74
2024/01/20 09:41:56;;;;;;;;;;;;;;;21.73;23.68;98326.16;4957386;29;1918;-72
2024/01/20 09:44:21;;;;;;;;;;;;;;;21.51;24.04;98323.00;4957480;28;1252;-73
2024/01/20 09:46:47;;;;;;;;;;;;;;;21.49;24.37;98324.66;4957266;28;1344;-73
2024/01/20 09:49:12;;;;;;;;;;;;;;;21.65;23.93;98326.75;4992161;28;1699;-73
2024/01/20 09:51:39;;;;;;;;;;;;;;;21.62;24.05;98328.44;5029047;28;1332;-73
2024/01/20 09:54:05;;;;;;;;;;;;;;;21.63;23.79;98327.19;4995175;28;1742;-72
2024/01/20 09:56:30;;;;;;;;;;;;;;;21.92;23.50;98329.41;5018705;28;1021;-72
2024/01/20 09:58:56;;;;;;;;;;;;;;;21.27;24.23;98341.25;5021167;28;1594;-72
2024/01/20 10:01:22;;;;;;;;;;;;;;;21.12;24.27;98340.75;4978961;28;1911;-73
2024/01/20 10:03:47;;;;;;;;;;;;;;;20.91;25.03;98356.09;4963467;28;1263;-73
2024/01/20 10:06:13;;;;;;;;;;;;;;;21.43;24.22;98349.06;4979652;28;1182;-73
2024/01/20 10:08:38;;;;;;;;;;;;;;;21.63;23.68;98349.06;4995331;28;964;-73
2024/01/20 10:11:04;;;;;;;;;;;;;;;21.53;24.12;98350.88;4981247;28;1630;-72
2024/01/20 10:13:30;;;;;;;;;;;;;;;21.64;23.62;98348.63;4960084;28;966;-73
2024/01/20 10:15:56;;;;;;;;;;;;;;;21.78;23.43;98370.97;4959837;28;967;-73
2024/01/20 10:18:21;;;;;;;;;;;;;;;21.20;24.14;98376.16;4975935;28;1039;-73
2024/01/20 10:20:47;;;;;;;;;;;;;;;21.01;24.38;98377.72;4961069;28;1429;-73
2024/01/20 10:23:12;;;;;;;;;;;;;;;21.30;24.15;98372.38;4956184;28;1906;-73
2024/01/20 10:25:38;;;;;;;;;;;;;;;21.52;23.74;98386.09;4959050;28;1397;-73
2024/01/20 10:28:04;;;;;;;;;;;;;;;21.54;23.94;98377.94;4959678;28;1045;-73
2024/01/20 10:30:30;;;;;;;;;;;;;;;21.31;23.95;98382.44;4960034;28;1127;-73
2024/01/20 10:32:55;;;;;;;;;;;;;;;21.75;23.49;98382.38;5003744;28;935;-73
2024/01/20 10:35:21;;;;;;;;;;;;;;;21.44;23.81;98373.31;5018988;28;950;-72
2024/01/20 10:37:49;;;;;;;;;;;;;;;21.19;23.99;98376.59;5018814;28;1304;-73
2024/01/20 10:40:15;;;;;;;;;;;;;;;20.98;24.67;98380.59;5002444;28;1333;-73
2024/01/20 10:42:47;;;;;;;;;;;;;;;21.35;23.94;98361.75;5003005;28;1985;-73
2024/01/20 10:45:19;;;;;;;;;;;;;;;21.42;24.01;98356.75;5002933;28;1454;-73
2024/01/20 10:47:59;;;;;;;;;;;;;;;21.34;24.23;98360.97;5035777;28;1440;-73
2024/01/20 10:50:25;;;;;;;;;;;;;;;21.65;23.68;98366.41;5035304;28;996;-73
2024/01/20 10:52:51;;;;;;;;;;;;;;;21.63;23.41;98352.69;4978677;28;1067;-73
2024/01/20 10:55:16;;;;;;;;;;;;;;;21.62;23.39;98351.09;4994912;28;989;-72
2024/01/20 10:57:42;;;;;;;;;;;;;;;21.57;23.86;98360.09;4978798;28;950;-73
2024/01/20 11:00:10;;;;;;;;;;;;;;;21.50;23.58;98369.56;4962386;28;1273;-73
2024/01/20 11:02:35;;;;;;;;;;;;;;;21.73;23.28;98365.81;4993634;28;1918;-73
2024/01/20 11:05:01;;;;;;;;;;;;;;;21.46;23.70;98365.19;4961167;28;1363;-73
2024/01/20 11:07:26;;;;;;;;;;;;;;;21.00;24.42;98369.69;4978523;28;956;-73
2024/01/20 11:09:56;;;;;;;;;;;;;;;20.88;24.31;98371.09;4994524;28;884;-73
2024/01/20 11:12:23;;;;;;;;;;;;;;;21.42;23.59;98364.47;4962479;28;1011;-72
2024/01/20 11:14:52;;;;;;;;;;;;;;;21.59;23.75;98351.97;4978708;28;965;-73
2024/01/20 11:17:17;;;;;;;;;;;;;;;21.66;23.40;98353.84;4976925;28;1476;-72
2024/01/20 11:19:43;;;;;;;;;;;;;;;21.90;22.98;98365.88;4978743;28;1008;-72
2024/01/20 11:22:27;;;;;;;;;;;;;;;21.61;23.45;98358.00;4978400;28;1975;-73
2024/01/20 11:24:52;;;;;;;;;;;;;;;21.01;24.06;98368.44;5033520;28;1142;-73
2024/01/20 11:27:18;;;;;;;;;;;;;;;21.11;24.01;98364.63;5001740;28;1181;-73
2024/01/20 11:29:44;;;;;;;;;;;;;;;21.55;23.34;98371.03;5002032;28;1226;-73
2024/01/20 11:32:09;;;;;;;;;;;;;;;21.48;23.43;98369.16;5032945;28;1334;-73
2024/01/20 11:34:35;;;;;;;;;;;;;;;21.67;23.07;98376.06;5033869;28;1085;-73
2024/01/20 11:37:00;;;;;;;;;;;;;;;21.49;23.57;98379.25;5033639;28;1030;-73
2024/01/20 11:39:26;;;;;;;;;;;;;;;21.30;23.79;98392.19;5033934;28;925;-73
2024/01/20 11:42:03;;;;;;;;;;;;;;;21.60;23.29;98381.88;5033824;28;1965;-73
2024/01/20 11:44:31;;;;;;;;;;;;;;;21.66;23.34;98379.31;5000655;28;959;-73
2024/01/20 11:46:59;;;;;;;;;;;;;;;21.31;23.53;98388.13;5016967;28;1404;-73
2024/01/20 11:49:25;;;;;;;;;;;;;;;20.93;24.04;98400.91;5017688;28;978;-73
2024/01/20 11:51:51;;;;;;;;;;;;;;;21.26;23.60;98394.25;5013809;28;1058;-73
2024/01/20 11:54:17;;;;;;;;;;;;;;;21.40;23.45;98396.03;4997625;28;958;-73
2024/01/20 11:56:43;;;;;;;;;;;;;;;21.38;23.56;98398.50;4997287;28;959;-73
2024/01/20 11:59:08;;;;;;;;;;;;;;;21.57;23.21;98405.41;4981374;28;1007;-72
2024/01/20 12:01:33;;;;;;;;;;;;;;;21.76;22.98;98401.78;4996504;28;1969;-73
2024/01/20 12:04:00;;;;;;;;;;;;;;;21.55;23.20;98407.84;4997510;28;962;-73
2024/01/20 12:06:25;;;;;;;;;;;;;;;21.08;23.61;98419.22;5013887;28;1217;-72
2024/01/20 12:08:51;;;;;;;;;;;;;;;21.00;23.77;98420.59;5013832;28;980;-73
2024/01/20 12:11:19;;;;;;;;;;;;;;;21.43;23.50;98422.66;5013616;28;1066;-72
2024/01/20 12:13:45;;;;;;;;;;;;;;;21.23;23.49;98423.41;5014133;28;1014;-73
2024/01/20 12:16:11;;;;;;;;;;;;;;;21.70;23.09;98425.38;5012511;28;1330;-73
2024/01/20 12:18:36;;;;;;;;;;;;;;;21.81;22.92;98423.09;5016879;28;926;-73
2024/01/20 12:21:02;;;;;;;;;;;;;;;21.55;22.93;98427.69;5000739;28;1983;-73
2024/01/20 12:23:28;;;;;;;;;;;;;;;21.65;22.99;98442.88;5021323;28;947;-72
2024/01/20 12:25:53;;;;;;;;;;;;;;;21.70;22.92;98436.69;5021223;28;1161;-73
2024/01/20 12:28:19;;;;;;;;;;;;;;;21.79;22.82;98440.56;5038990;28;922;-73
2024/01/20 12:30:45;;;;;;;;;;;;;;;21.19;23.38;98442.50;5005200;28;1164;-73
2024/01/20 12:33:10;;;;;;;;;;;;;;;20.95;23.59;98449.38;5004632;28;1502;-73
2024/01/20 12:35:36;;;;;;;;;;;;;;;20.97;23.64;98446.91;5021231;28;905;-72
2024/01/20 12:38:01;;;;;;;;;;;;;;;21.22;23.52;98450.09;5021613;28;908;-73
2024/01/20 12:40:29;;;;;;;;;;;;;;;21.64;22.99;98444.91;5021092;28;900;-73
2024/01/20 12:42:55;;;;;;;;;;;;;;;21.70;22.91;98454.47;5021309;28;1983;-73
2024/01/20 12:45:20;;;;;;;;;;;;;;;21.75;22.72;98468.13;5021015;28;956;-73
2024/01/20 12:47:46;;;;;;;;;;;;;;;21.51;22.92;98467.41;5038134;28;1373;-72
2024/01/20 12:50:11;;;;;;;;;;;;;;;21.54;22.82;98480.69;5038548;28;969;-73
2024/01/20 12:52:37;;;;;;;;;;;;;;;21.60;22.89;98478.16;5038350;28;944;-73